sensor_id;sensor_type;location;lat;lon;timestamp;P1;durP1;ratioP1;P2;durP2;ratioP2
23376;SDS011;14353;46.070;13.222;2023-01-13T00:02:09;7.47;;;6.13;;
23376;SDS011;14353;46.070;13.222;2023-01-13T00:04:34;8.43;;;6.43;;
23376;SDS011;14353;46.070;13.222;2023-01-13T00:07:00;7.82;;;6.03;;
23376;SDS011;14353;46.070;13.222;2023-01-13T00:09:26;8.35;;;6.75;;
23376;SDS011;14353;46.070;13.222;2023-01-13T00:11:52;8.50;;;6.47;;
23376;SDS011;14353;46.070;13.222;2023-01-13T00:14:17;7.70;;;6.00;;
23376;SDS011;14353;46.070;13.222;2023-01-13T00:16:43;7.68;;;6.43;;
23376;SDS011;14353;46.070;13.222;2023-01-13T00:19:08;7.63;;;5.90;;
23376;SDS011;14353;46.070;13.222;2023-01-13T00:21:34;8.38;;;6.07;;
23376;SDS011;14353;46.070;13.222;2023-01-13T00:24:01;7.65;;;6.30;;
23376;SDS011;14353;46.070;13.222;2023-01-13T00:26:27;8.50;;;6.30;;
23376;SDS011;14353;46.070;13.222;2023-01-13T00:28:57;7.70;;;6.28;;
23376;SDS011;14353;46.070;13.222;2023-01-13T00:31:24;8.70;;;6.28;;
23376;SDS011;14353;46.070;13.222;2023-01-13T00:33:51;8.07;;;6.32;;
23376;SDS011;14353;46.070;13.222;2023-01-13T00:36:18;7.43;;;6.43;;
23376;SDS011;14353;46.070;13.222;2023-01-13T00:38:44;7.72;;;6.03;;
23376;SDS011;14353;46.070;13.222;2023-01-13T00:41:21;8.02;;;6.35;;
23376;SDS011;14353;46.070;13.222;2023-01-13T00:43:48;8.43;;;6.60;;
23376;SDS011;14353;46.070;13.222;2023-01-13T00:46:15;8.05;;;6.22;;
23376;SDS011;14353;46.070;13.222;2023-01-13T00:48:43;7.55;;;6.20;;
23376;SDS011;14353;46.070;13.222;2023-01-13T00:51:13;6.88;;;6.03;;
23376;SDS011;14353;46.070;13.222;2023-01-13T00:53:44;7.78;;;6.43;;
23376;SDS011;14353;46.070;13.222;2023-01-13T00:56:12;7.25;;;6.15;;
23376;SDS011;14353;46.070;13.222;2023-01-13T00:58:42;7.90;;;6.50;;
23376;SDS011;14353;46.070;13.222;2023-01-13T01:01:10;8.77;;;6.20;;
23376;SDS011;14353;46.070;13.222;2023-01-13T01:03:38;8.02;;;6.60;;
23376;SDS011;14353;46.070;13.222;2023-01-13T01:06:05;7.65;;;6.25;;
23376;SDS011;14353;46.070;13.222;2023-01-13T01:08:33;7.93;;;6.32;;
23376;SDS011;14353;46.070;13.222;2023-01-13T01:11:03;8.98;;;5.95;;
23376;SDS011;14353;46.070;13.222;2023-01-13T01:13:31;8.25;;;6.20;;
23376;SDS011;14353;46.070;13.222;2023-01-13T01:15:57;7.95;;;5.78;;
23376;SDS011;14353;46.070;13.222;2023-01-13T01:18:23;7.88;;;6.53;;
23376;SDS011;14353;46.070;13.222;2023-01-13T01:20:49;6.88;;;6.18;;
23376;SDS011;14353;46.070;13.222;2023-01-13T01:23:14;7.40;;;6.03;;
23376;SDS011;14353;46.070;13.222;2023-01-13T01:25:40;8.20;;;6.45;;
23376;SDS011;14353;46.070;13.222;2023-01-13T01:28:06;7.63;;;6.22;;
23376;SDS011;14353;46.070;13.222;2023-01-13T01:30:31;7.28;;;5.60;;
23376;SDS011;14353;46.070;13.222;2023-01-13T01:32:57;8.85;;;6.25;;
23376;SDS011;14353;46.070;13.222;2023-01-13T01:35:23;7.68;;;6.40;;
23376;SDS011;14353;46.070;13.222;2023-01-13T01:37:49;7.15;;;5.90;;
23376;SDS011;14353;46.070;13.222;2023-01-13T01:40:15;6.50;;;5.80;;
23376;SDS011;14353;46.070;13.222;2023-01-13T01:42:41;7.18;;;5.88;;
23376;SDS011;14353;46.070;13.222;2023-01-13T01:45:26;7.00;;;5.88;;
23376;SDS011;14353;46.070;13.222;2023-01-13T01:47:54;6.60;;;5.75;;
23376;SDS011;14353;46.070;13.222;2023-01-13T01:50:22;7.63;;;5.32;;
23376;SDS011;14353;46.070;13.222;2023-01-13T01:52:51;8.35;;;6.32;;
23376;SDS011;14353;46.070;13.222;2023-01-13T01:55:24;7.40;;;5.65;;
23376;SDS011;14353;46.070;13.222;2023-01-13T01:58:00;6.60;;;5.47;;
23376;SDS011;14353;46.070;13.222;2023-01-13T02:00:31;7.35;;;5.95;;
23376;SDS011;14353;46.070;13.222;2023-01-13T02:02:57;7.00;;;5.90;;
23376;SDS011;14353;46.070;13.222;2023-01-13T02:05:24;7.60;;;5.93;;
23376;SDS011;14353;46.070;13.222;2023-01-13T02:07:51;6.90;;;5.78;;
23376;SDS011;14353;46.070;13.222;2023-01-13T02:10:21;7.35;;;5.70;;
23376;SDS011;14353;46.070;13.222;2023-01-13T02:12:50;6.80;;;6.00;;
23376;SDS011;14353;46.070;13.222;2023-01-13T02:15:18;6.43;;;5.72;;
23376;SDS011;14353;46.070;13.222;2023-01-13T02:17:57;6.55;;;5.65;;
23376;SDS011;14353;46.070;13.222;2023-01-13T02:32:49;7.15;;;5.47;;
23376;SDS011;14353;46.070;13.222;2023-01-13T02:35:42;6.63;;;5.57;;
23376;SDS011;14353;46.070;13.222;2023-01-13T02:38:12;6.63;;;5.75;;
23376;SDS011;14353;46.070;13.222;2023-01-13T02:40:44;6.28;;;5.60;;
23376;SDS011;14353;46.070;13.222;2023-01-13T02:43:47;7.32;;;5.80;;
23376;SDS011;14353;46.070;13.222;2023-01-13T02:46:32;7.50;;;5.70;;
23376;SDS011;14353;46.070;13.222;2023-01-13T02:49:06;6.80;;;5.75;;
23376;SDS011;14353;46.070;13.222;2023-01-13T02:51:34;7.90;;;6.03;;
23376;SDS011;14353;46.070;13.222;2023-01-13T02:54:06;7.15;;;5.90;;
23376;SDS011;14353;46.070;13.222;2023-01-13T02:56:46;8.05;;;5.78;;
23376;SDS011;14353;46.070;13.222;2023-01-13T02:59:14;6.72;;;5.38;;
23376;SDS011;14353;46.070;13.222;2023-01-13T03:01:42;7.45;;;5.40;;
23376;SDS011;14353;46.070;13.222;2023-01-13T03:04:41;6.65;;;5.50;;
23376;SDS011;14353;46.070;13.222;2023-01-13T03:10:26;6.65;;;5.22;;
23376;SDS011;14353;46.070;13.222;2023-01-13T03:21:31;6.22;;;5.32;;
23376;SDS011;14353;46.070;13.222;2023-01-13T03:29:34;6.10;;;5.28;;
23376;SDS011;14353;46.070;13.222;2023-01-13T03:34:34;5.78;;;5.05;;
23376;SDS011;14353;46.070;13.222;2023-01-13T03:37:11;6.65;;;5.53;;
23376;SDS011;14353;46.070;13.222;2023-01-13T03:39:42;6.80;;;5.90;;
23376;SDS011;14353;46.070;13.222;2023-01-13T03:42:18;6.32;;;5.20;;
23376;SDS011;14353;46.070;13.222;2023-01-13T03:50:19;6.65;;;5.20;;
23376;SDS011;14353;46.070;13.222;2023-01-13T03:52:56;6.55;;;5.28;;
23376;SDS011;14353;46.070;13.222;2023-01-13T03:55:30;6.72;;;5.20;;
23376;SDS011;14353;46.070;13.222;2023-01-13T04:06:15;7.07;;;5.10;;
23376;SDS011;14353;46.070;13.222;2023-01-13T04:08:52;6.15;;;5.10;;
23376;SDS011;14353;46.070;13.222;2023-01-13T04:11:33;6.25;;;5.13;;
23376;SDS011;14353;46.070;13.222;2023-01-13T04:14:03;6.63;;;5.50;;
23376;SDS011;14353;46.070;13.222;2023-01-13T04:16:32;6.18;;;5.22;;
23376;SDS011;14353;46.070;13.222;2023-01-13T04:18:58;5.90;;;4.82;;
23376;SDS011;14353;46.070;13.222;2023-01-13T04:21:24;6.63;;;5.18;;
23376;SDS011;14353;46.070;13.222;2023-01-13T04:23:50;5.97;;;4.95;;
23376;SDS011;14353;46.070;13.222;2023-01-13T04:26:17;5.50;;;4.88;;
23376;SDS011;14353;46.070;13.222;2023-01-13T04:28:44;6.00;;;5.03;;
23376;SDS011;14353;46.070;13.222;2023-01-13T04:31:10;5.25;;;4.53;;
23376;SDS011;14353;46.070;13.222;2023-01-13T04:33:36;5.45;;;4.72;;
23376;SDS011;14353;46.070;13.222;2023-01-13T04:36:01;5.65;;;4.95;;
23376;SDS011;14353;46.070;13.222;2023-01-13T04:38:27;5.80;;;5.03;;
23376;SDS011;14353;46.070;13.222;2023-01-13T04:40:53;5.10;;;4.60;;
23376;SDS011;14353;46.070;13.222;2023-01-13T04:43:19;6.00;;;4.88;;
23376;SDS011;14353;46.070;13.222;2023-01-13T04:45:44;5.72;;;4.60;;
23376;SDS011;14353;46.070;13.222;2023-01-13T04:48:10;5.75;;;5.05;;
23376;SDS011;14353;46.070;13.222;2023-01-13T04:50:36;5.45;;;4.72;;
23376;SDS011;14353;46.070;13.222;2023-01-13T04:53:02;5.40;;;4.65;;
23376;SDS011;14353;46.070;13.222;2023-01-13T04:55:28;5.40;;;4.80;;
23376;SDS011;14353;46.070;13.222;2023-01-13T04:57:59;5.57;;;4.43;;
23376;SDS011;14353;46.070;13.222;2023-01-13T05:02:55;5.75;;;4.90;;
23376;SDS011;14353;46.070;13.222;2023-01-13T05:05:21;6.28;;;4.97;;
23376;SDS011;14353;46.070;13.222;2023-01-13T05:07:47;5.80;;;4.72;;
23376;SDS011;14353;46.070;13.222;2023-01-13T05:10:13;5.60;;;5.00;;
23376;SDS011;14353;46.070;13.222;2023-01-13T05:12:39;5.50;;;4.53;;
23376;SDS011;14353;46.070;13.222;2023-01-13T05:15:24;6.05;;;4.88;;
23376;SDS011;14353;46.070;13.222;2023-01-13T05:20:33;6.22;;;4.88;;
23376;SDS011;14353;46.070;13.222;2023-01-13T05:22:59;5.45;;;4.57;;
23376;SDS011;14353;46.070;13.222;2023-01-13T05:25:43;5.85;;;4.63;;
23376;SDS011;14353;46.070;13.222;2023-01-13T05:28:12;4.50;;;3.95;;
23376;SDS011;14353;46.070;13.222;2023-01-13T05:30:38;5.53;;;4.78;;
23376;SDS011;14353;46.070;13.222;2023-01-13T05:33:10;5.93;;;4.80;;
23376;SDS011;14353;46.070;13.222;2023-01-13T05:35:38;5.10;;;4.40;;
23376;SDS011;14353;46.070;13.222;2023-01-13T05:38:05;5.22;;;3.92;;
23376;SDS011;14353;46.070;13.222;2023-01-13T05:40:30;5.43;;;4.72;;
23376;SDS011;14353;46.070;13.222;2023-01-13T05:43:15;5.72;;;4.68;;
23376;SDS011;14353;46.070;13.222;2023-01-13T05:45:58;5.45;;;4.28;;
23376;SDS011;14353;46.070;13.222;2023-01-13T05:48:46;4.50;;;3.97;;
23376;SDS011;14353;46.070;13.222;2023-01-13T05:51:12;5.55;;;4.68;;
23376;SDS011;14353;46.070;13.222;2023-01-13T05:53:37;6.15;;;4.57;;
23376;SDS011;14353;46.070;13.222;2023-01-13T05:56:05;5.70;;;4.13;;
23376;SDS011;14353;46.070;13.222;2023-01-13T05:58:32;4.88;;;4.15;;
23376;SDS011;14353;46.070;13.222;2023-01-13T06:00:59;4.97;;;4.47;;
23376;SDS011;14353;46.070;13.222;2023-01-13T06:03:26;4.95;;;4.32;;
23376;SDS011;14353;46.070;13.222;2023-01-13T06:05:52;4.80;;;4.10;;
23376;SDS011;14353;46.070;13.222;2023-01-13T06:08:22;5.10;;;4.35;;
23376;SDS011;14353;46.070;13.222;2023-01-13T06:10:49;4.97;;;4.10;;
23376;SDS011;14353;46.070;13.222;2023-01-13T06:13:15;5.65;;;4.20;;
23376;SDS011;14353;46.070;13.222;2023-01-13T06:15:41;4.30;;;3.90;;
23376;SDS011;14353;46.070;13.222;2023-01-13T06:18:06;4.63;;;4.13;;
23376;SDS011;14353;46.070;13.222;2023-01-13T06:20:32;5.30;;;4.20;;
23376;SDS011;14353;46.070;13.222;2023-01-13T06:22:58;5.85;;;4.47;;
23376;SDS011;14353;46.070;13.222;2023-01-13T06:28:15;6.10;;;4.18;;
23376;SDS011;14353;46.070;13.222;2023-01-13T06:30:42;4.22;;;3.83;;
23376;SDS011;14353;46.070;13.222;2023-01-13T06:33:23;4.40;;;3.75;;
23376;SDS011;14353;46.070;13.222;2023-01-13T06:35:57;4.82;;;4.03;;
23376;SDS011;14353;46.070;13.222;2023-01-13T06:38:27;4.78;;;3.85;;
23376;SDS011;14353;46.070;13.222;2023-01-13T06:40:56;6.55;;;4.00;;
23376;SDS011;14353;46.070;13.222;2023-01-13T06:43:22;5.15;;;4.03;;
23376;SDS011;14353;46.070;13.222;2023-01-13T06:45:49;4.53;;;3.88;;
23376;SDS011;14353;46.070;13.222;2023-01-13T06:48:17;4.18;;;3.78;;
23376;SDS011;14353;46.070;13.222;2023-01-13T06:50:45;6.45;;;3.75;;
23376;SDS011;14353;46.070;13.222;2023-01-13T06:53:11;4.38;;;3.63;;
23376;SDS011;14353;46.070;13.222;2023-01-13T06:55:37;5.68;;;3.80;;
23376;SDS011;14353;46.070;13.222;2023-01-13T06:58:03;10.60;;;4.00;;
23376;SDS011;14353;46.070;13.222;2023-01-13T07:00:29;7.60;;;3.78;;
23376;SDS011;14353;46.070;13.222;2023-01-13T07:05:32;5.15;;;3.78;;
23376;SDS011;14353;46.070;13.222;2023-01-13T07:07:58;7.72;;;4.25;;
23376;SDS011;14353;46.070;13.222;2023-01-13T07:10:24;5.45;;;4.35;;
23376;SDS011;14353;46.070;13.222;2023-01-13T07:12:49;8.80;;;4.05;;
23376;SDS011;14353;46.070;13.222;2023-01-13T07:15:34;9.43;;;4.03;;
23376;SDS011;14353;46.070;13.222;2023-01-13T07:18:00;9.85;;;3.83;;
23376;SDS011;14353;46.070;13.222;2023-01-13T07:20:26;9.32;;;3.90;;
23376;SDS011;14353;46.070;13.222;2023-01-13T07:22:56;9.23;;;3.97;;
23376;SDS011;14353;46.070;13.222;2023-01-13T07:25:22;7.35;;;4.03;;
23376;SDS011;14353;46.070;13.222;2023-01-13T07:27:48;6.63;;;4.03;;
23376;SDS011;14353;46.070;13.222;2023-01-13T07:30:14;6.80;;;3.90;;
23376;SDS011;14353;46.070;13.222;2023-01-13T07:32:40;8.57;;;4.30;;
23376;SDS011;14353;46.070;13.222;2023-01-13T07:35:06;8.15;;;4.00;;
23376;SDS011;14353;46.070;13.222;2023-01-13T07:37:32;7.22;;;4.47;;
23376;SDS011;14353;46.070;13.222;2023-01-13T07:39:59;7.32;;;4.38;;
23376;SDS011;14353;46.070;13.222;2023-01-13T07:42:26;6.85;;;4.55;;
23376;SDS011;14353;46.070;13.222;2023-01-13T07:45:10;6.20;;;3.92;;
23376;SDS011;14353;46.070;13.222;2023-01-13T07:47:36;7.10;;;4.30;;
23376;SDS011;14353;46.070;13.222;2023-01-13T07:50:02;7.75;;;4.45;;
23376;SDS011;14353;46.070;13.222;2023-01-13T07:52:28;7.22;;;4.25;;
23376;SDS011;14353;46.070;13.222;2023-01-13T07:54:54;7.85;;;4.50;;
23376;SDS011;14353;46.070;13.222;2023-01-13T07:57:20;6.18;;;4.20;;
23376;SDS011;14353;46.070;13.222;2023-01-13T07:59:46;6.10;;;4.38;;
23376;SDS011;14353;46.070;13.222;2023-01-13T08:02:11;10.32;;;4.30;;
23376;SDS011;14353;46.070;13.222;2023-01-13T08:04:38;7.30;;;4.20;;
23376;SDS011;14353;46.070;13.222;2023-01-13T08:07:04;5.60;;;4.10;;
23376;SDS011;14353;46.070;13.222;2023-01-13T08:09:30;10.05;;;3.95;;
23376;SDS011;14353;46.070;13.222;2023-01-13T08:11:57;11.77;;;4.30;;
23376;SDS011;14353;46.070;13.222;2023-01-13T08:14:43;8.60;;;4.10;;
23376;SDS011;14353;46.070;13.222;2023-01-13T08:17:11;11.98;;;4.32;;
23376;SDS011;14353;46.070;13.222;2023-01-13T08:19:38;12.80;;;4.50;;
23376;SDS011;14353;46.070;13.222;2023-01-13T08:22:04;9.00;;;4.30;;
23376;SDS011;14353;46.070;13.222;2023-01-13T08:24:31;8.63;;;4.53;;
23376;SDS011;14353;46.070;13.222;2023-01-13T08:26:56;10.13;;;4.00;;
23376;SDS011;14353;46.070;13.222;2023-01-13T08:29:22;11.32;;;4.38;;
23376;SDS011;14353;46.070;13.222;2023-01-13T08:31:48;8.27;;;4.10;;
23376;SDS011;14353;46.070;13.222;2023-01-13T08:34:14;10.82;;;4.90;;
23376;SDS011;14353;46.070;13.222;2023-01-13T08:36:40;11.10;;;4.53;;
23376;SDS011;14353;46.070;13.222;2023-01-13T08:39:06;8.25;;;3.95;;
23376;SDS011;14353;46.070;13.222;2023-01-13T08:41:33;10.57;;;4.60;;
23376;SDS011;14353;46.070;13.222;2023-01-13T08:44:17;7.10;;;4.03;;
23376;SDS011;14353;46.070;13.222;2023-01-13T08:46:43;10.38;;;5.00;;
23376;SDS011;14353;46.070;13.222;2023-01-13T08:49:09;11.88;;;4.35;;
23376;SDS011;14353;46.070;13.222;2023-01-13T08:51:35;7.70;;;4.60;;
23376;SDS011;14353;46.070;13.222;2023-01-13T08:54:00;11.13;;;4.60;;
23376;SDS011;14353;46.070;13.222;2023-01-13T08:56:28;9.52;;;4.50;;
23376;SDS011;14353;46.070;13.222;2023-01-13T08:58:57;7.05;;;4.13;;
23376;SDS011;14353;46.070;13.222;2023-01-13T09:01:24;10.15;;;4.43;;
23376;SDS011;14353;46.070;13.222;2023-01-13T09:03:50;8.13;;;4.45;;
23376;SDS011;14353;46.070;13.222;2023-01-13T09:06:16;9.23;;;4.07;;
23376;SDS011;14353;46.070;13.222;2023-01-13T09:08:42;10.82;;;4.75;;
23376;SDS011;14353;46.070;13.222;2023-01-13T09:11:09;8.82;;;4.35;;
23376;SDS011;14353;46.070;13.222;2023-01-13T09:14:02;6.32;;;4.47;;
23376;SDS011;14353;46.070;13.222;2023-01-13T09:16:28;10.35;;;4.20;;
23376;SDS011;14353;46.070;13.222;2023-01-13T09:18:55;8.20;;;4.35;;
23376;SDS011;14353;46.070;13.222;2023-01-13T09:21:20;10.88;;;5.05;;
23376;SDS011;14353;46.070;13.222;2023-01-13T09:23:47;7.25;;;4.07;;
23376;SDS011;14353;46.070;13.222;2023-01-13T09:26:14;10.85;;;4.63;;
23376;SDS011;14353;46.070;13.222;2023-01-13T09:28:44;12.10;;;4.70;;
23376;SDS011;14353;46.070;13.222;2023-01-13T09:31:10;10.32;;;4.70;;
23376;SDS011;14353;46.070;13.222;2023-01-13T09:33:35;9.43;;;4.28;;
23376;SDS011;14353;46.070;13.222;2023-01-13T09:36:20;10.73;;;4.85;;
23376;SDS011;14353;46.070;13.222;2023-01-13T09:38:47;9.68;;;4.72;;
23376;SDS011;14353;46.070;13.222;2023-01-13T09:41:21;9.32;;;4.35;;
23376;SDS011;14353;46.070;13.222;2023-01-13T09:44:09;10.07;;;4.40;;
23376;SDS011;14353;46.070;13.222;2023-01-13T09:46:42;6.80;;;4.30;;
23376;SDS011;14353;46.070;13.222;2023-01-13T09:49:15;10.50;;;4.57;;
23376;SDS011;14353;46.070;13.222;2023-01-13T09:56:51;9.30;;;4.57;;
23376;SDS011;14353;46.070;13.222;2023-01-13T09:59:17;8.38;;;4.43;;
23376;SDS011;14353;46.070;13.222;2023-01-13T10:01:46;10.38;;;4.00;;
23376;SDS011;14353;46.070;13.222;2023-01-13T10:04:23;13.18;;;4.38;;
23376;SDS011;14353;46.070;13.222;2023-01-13T10:06:51;8.52;;;4.53;;
23376;SDS011;14353;46.070;13.222;2023-01-13T10:09:24;10.02;;;4.45;;
23376;SDS011;14353;46.070;13.222;2023-01-13T10:11:51;10.88;;;4.78;;
23376;SDS011;14353;46.070;13.222;2023-01-13T10:28:28;7.88;;;4.05;;
23376;SDS011;14353;46.070;13.222;2023-01-13T10:30:53;7.07;;;4.22;;
23376;SDS011;14353;46.070;13.222;2023-01-13T10:33:24;10.80;;;4.45;;
23376;SDS011;14353;46.070;13.222;2023-01-13T10:36:13;12.27;;;5.10;;
23376;SDS011;14353;46.070;13.222;2023-01-13T10:38:44;18.52;;;5.68;;
23376;SDS011;14353;46.070;13.222;2023-01-13T10:43:56;19.60;;;5.43;;
23376;SDS011;14353;46.070;13.222;2023-01-13T10:46:25;19.58;;;5.53;;
23376;SDS011;14353;46.070;13.222;2023-01-13T10:48:59;16.67;;;5.72;;
23376;SDS011;14353;46.070;13.222;2023-01-13T10:51:41;10.13;;;5.30;;
23376;SDS011;14353;46.070;13.222;2023-01-13T10:56:37;14.98;;;5.35;;
23376;SDS011;14353;46.070;13.222;2023-01-13T10:59:24;18.20;;;5.35;;
23376;SDS011;14353;46.070;13.222;2023-01-13T11:05:15;12.60;;;5.82;;
23376;SDS011;14353;46.070;13.222;2023-01-13T11:07:38;14.75;;;5.80;;
23376;SDS011;14353;46.070;13.222;2023-01-13T11:12:35;18.60;;;6.07;;
23376;SDS011;14353;46.070;13.222;2023-01-13T11:15:08;15.65;;;6.05;;
23376;SDS011;14353;46.070;13.222;2023-01-13T11:17:40;17.48;;;6.15;;
23376;SDS011;14353;46.070;13.222;2023-01-13T11:22:41;16.73;;;6.47;;
23376;SDS011;14353;46.070;13.222;2023-01-13T11:27:44;14.48;;;6.15;;
23376;SDS011;14353;46.070;13.222;2023-01-13T11:30:38;16.70;;;6.13;;
23376;SDS011;14353;46.070;13.222;2023-01-13T11:38:11;25.70;;;6.55;;
23376;SDS011;14353;46.070;13.222;2023-01-13T11:40:52;20.00;;;6.43;;
23376;SDS011;14353;46.070;13.222;2023-01-13T11:45:56;15.15;;;6.53;;
23376;SDS011;14353;46.070;13.222;2023-01-13T11:48:25;17.45;;;6.50;;
23376;SDS011;14353;46.070;13.222;2023-01-13T11:59:33;19.23;;;6.13;;
23376;SDS011;14353;46.070;13.222;2023-01-13T12:02:24;11.57;;;5.63;;
23376;SDS011;14353;46.070;13.222;2023-01-13T12:16:46;17.08;;;6.90;;
23376;SDS011;14353;46.070;13.222;2023-01-13T12:30:20;14.23;;;7.80;;
23376;SDS011;14353;46.070;13.222;2023-01-13T12:32:53;13.55;;;7.25;;
23376;SDS011;14353;46.070;13.222;2023-01-13T12:38:00;14.48;;;7.30;;
23376;SDS011;14353;46.070;13.222;2023-01-13T12:43:15;14.40;;;8.32;;
23376;SDS011;14353;46.070;13.222;2023-01-13T12:53:48;12.43;;;8.18;;
23376;SDS011;14353;46.070;13.222;2023-01-13T13:01:41;12.82;;;7.88;;
23376;SDS011;14353;46.070;13.222;2023-01-13T13:04:09;12.13;;;8.00;;
23376;SDS011;14353;46.070;13.222;2023-01-13T13:06:36;14.52;;;7.72;;
23376;SDS011;14353;46.070;13.222;2023-01-13T13:17:01;13.77;;;8.15;;
23376;SDS011;14353;46.070;13.222;2023-01-13T13:19:46;15.23;;;7.32;;
23376;SDS011;14353;46.070;13.222;2023-01-13T13:32:55;13.32;;;8.65;;
23376;SDS011;14353;46.070;13.222;2023-01-13T13:35:27;11.77;;;8.32;;
23376;SDS011;14353;46.070;13.222;2023-01-13T13:41:19;13.32;;;8.45;;
23376;SDS011;14353;46.070;13.222;2023-01-13T13:44:12;14.18;;;8.38;;
23376;SDS011;14353;46.070;13.222;2023-01-13T13:47:03;12.77;;;8.75;;
23376;SDS011;14353;46.070;13.222;2023-01-13T13:49:34;12.80;;;8.43;;
23376;SDS011;14353;46.070;13.222;2023-01-13T13:54:36;13.95;;;8.52;;
23376;SDS011;14353;46.070;13.222;2023-01-13T13:57:12;13.95;;;8.80;;
23376;SDS011;14353;46.070;13.222;2023-01-13T14:02:29;12.70;;;9.27;;
23376;SDS011;14353;46.070;13.222;2023-01-13T14:07:46;17.23;;;9.95;;
23376;SDS011;14353;46.070;13.222;2023-01-13T14:10:18;15.70;;;10.30;;
23376;SDS011;14353;46.070;13.222;2023-01-13T14:12:46;18.00;;;10.17;;
23376;SDS011;14353;46.070;13.222;2023-01-13T14:15:27;18.33;;;9.82;;
23376;SDS011;14353;46.070;13.222;2023-01-13T14:18:04;16.23;;;9.77;;
23376;SDS011;14353;46.070;13.222;2023-01-13T14:20:38;17.17;;;9.27;;
23376;SDS011;14353;46.070;13.222;2023-01-13T14:23:04;19.35;;;10.07;;
23376;SDS011;14353;46.070;13.222;2023-01-13T14:25:32;17.23;;;9.32;;
23376;SDS011;14353;46.070;13.222;2023-01-13T14:28:26;24.38;;;10.00;;
23376;SDS011;14353;46.070;13.222;2023-01-13T14:31:11;16.50;;;9.73;;
23376;SDS011;14353;46.070;13.222;2023-01-13T14:33:39;14.25;;;9.65;;
23376;SDS011;14353;46.070;13.222;2023-01-13T14:38:45;11.75;;;8.93;;
23376;SDS011;14353;46.070;13.222;2023-01-13T14:41:26;14.77;;;9.15;;
23376;SDS011;14353;46.070;13.222;2023-01-13T14:43:57;11.68;;;8.68;;
23376;SDS011;14353;46.070;13.222;2023-01-13T14:46:41;13.02;;;9.40;;
23376;SDS011;14353;46.070;13.222;2023-01-13T14:49:18;11.93;;;9.33;;
23376;SDS011;14353;46.070;13.222;2023-01-13T14:52:12;14.35;;;9.30;;
23376;SDS011;14353;46.070;13.222;2023-01-13T14:54:45;12.70;;;8.57;;
23376;SDS011;14353;46.070;13.222;2023-01-13T14:57:13;14.77;;;9.02;;
23376;SDS011;14353;46.070;13.222;2023-01-13T15:07:47;11.07;;;8.70;;
23376;SDS011;14353;46.070;13.222;2023-01-13T15:10:33;15.68;;;8.68;;
23376;SDS011;14353;46.070;13.222;2023-01-13T15:13:06;12.20;;;8.65;;
23376;SDS011;14353;46.070;13.222;2023-01-13T15:15:48;13.00;;;8.35;;
23376;SDS011;14353;46.070;13.222;2023-01-13T15:18:15;12.45;;;9.18;;
23376;SDS011;14353;46.070;13.222;2023-01-13T15:20:42;12.07;;;8.65;;
23376;SDS011;14353;46.070;13.222;2023-01-13T15:23:08;15.27;;;8.90;;
23376;SDS011;14353;46.070;13.222;2023-01-13T15:25:39;12.23;;;8.35;;
23376;SDS011;14353;46.070;13.222;2023-01-13T15:28:06;13.77;;;9.13;;
23376;SDS011;14353;46.070;13.222;2023-01-13T15:30:40;14.63;;;9.15;;
23376;SDS011;14353;46.070;13.222;2023-01-13T15:33:07;12.50;;;8.88;;
23376;SDS011;14353;46.070;13.222;2023-01-13T15:35:34;12.98;;;8.50;;
23376;SDS011;14353;46.070;13.222;2023-01-13T15:38:05;12.38;;;8.27;;
23376;SDS011;14353;46.070;13.222;2023-01-13T15:40:35;15.82;;;8.90;;
23376;SDS011;14353;46.070;13.222;2023-01-13T15:43:01;11.93;;;8.60;;
23376;SDS011;14353;46.070;13.222;2023-01-13T15:45:45;12.27;;;8.05;;
23376;SDS011;14353;46.070;13.222;2023-01-13T15:48:30;13.50;;;8.23;;
23376;SDS011;14353;46.070;13.222;2023-01-13T15:50:58;13.00;;;8.30;;
23376;SDS011;14353;46.070;13.222;2023-01-13T15:53:24;13.18;;;8.35;;
23376;SDS011;14353;46.070;13.222;2023-01-13T15:55:51;14.20;;;8.55;;
23376;SDS011;14353;46.070;13.222;2023-01-13T15:58:20;13.05;;;8.38;;
23376;SDS011;14353;46.070;13.222;2023-01-13T16:00:49;14.80;;;8.48;;
23376;SDS011;14353;46.070;13.222;2023-01-13T16:03:15;14.65;;;8.40;;
23376;SDS011;14353;46.070;13.222;2023-01-13T16:05:41;12.75;;;8.38;;
23376;SDS011;14353;46.070;13.222;2023-01-13T16:10:41;14.85;;;8.85;;
23376;SDS011;14353;46.070;13.222;2023-01-13T16:13:08;16.33;;;9.13;;
23376;SDS011;14353;46.070;13.222;2023-01-13T16:15:35;14.20;;;8.65;;
23376;SDS011;14353;46.070;13.222;2023-01-13T16:18:02;13.38;;;8.63;;
23376;SDS011;14353;46.070;13.222;2023-01-13T16:20:29;21.33;;;9.35;;
23376;SDS011;14353;46.070;13.222;2023-01-13T16:22:55;14.50;;;8.27;;
23376;SDS011;14353;46.070;13.222;2023-01-13T16:25:21;13.88;;;8.68;;
23376;SDS011;14353;46.070;13.222;2023-01-13T16:27:48;14.75;;;8.68;;
23376;SDS011;14353;46.070;13.222;2023-01-13T16:32:49;14.50;;;8.45;;
23376;SDS011;14353;46.070;13.222;2023-01-13T16:35:15;15.02;;;8.95;;
23376;SDS011;14353;46.070;13.222;2023-01-13T16:37:43;13.63;;;8.30;;
23376;SDS011;14353;46.070;13.222;2023-01-13T16:40:17;17.83;;;8.80;;
23376;SDS011;14353;46.070;13.222;2023-01-13T16:42:49;12.70;;;8.07;;
23376;SDS011;14353;46.070;13.222;2023-01-13T16:45:16;14.30;;;7.43;;
23376;SDS011;14353;46.070;13.222;2023-01-13T16:47:42;13.90;;;7.85;;
23376;SDS011;14353;46.070;13.222;2023-01-13T16:53:01;12.52;;;7.93;;
23376;SDS011;14353;46.070;13.222;2023-01-13T16:55:28;12.25;;;8.05;;
23376;SDS011;14353;46.070;13.222;2023-01-13T16:57:54;13.88;;;8.50;;
23376;SDS011;14353;46.070;13.222;2023-01-13T17:00:20;14.52;;;7.57;;
23376;SDS011;14353;46.070;13.222;2023-01-13T17:02:46;12.38;;;8.13;;
23376;SDS011;14353;46.070;13.222;2023-01-13T17:05:12;14.10;;;7.78;;
23376;SDS011;14353;46.070;13.222;2023-01-13T17:07:40;10.43;;;7.63;;
23376;SDS011;14353;46.070;13.222;2023-01-13T17:10:07;12.60;;;7.72;;
23376;SDS011;14353;46.070;13.222;2023-01-13T17:12:37;11.65;;;7.20;;
23376;SDS011;14353;46.070;13.222;2023-01-13T17:15:03;10.73;;;7.50;;
23376;SDS011;14353;46.070;13.222;2023-01-13T17:17:29;14.55;;;10.18;;
23376;SDS011;14353;46.070;13.222;2023-01-13T17:19:55;13.95;;;10.30;;
23376;SDS011;14353;46.070;13.222;2023-01-13T17:22:20;17.13;;;11.43;;
23376;SDS011;14353;46.070;13.222;2023-01-13T17:24:46;18.73;;;11.98;;
23376;SDS011;14353;46.070;13.222;2023-01-13T17:27:12;19.88;;;11.77;;
23376;SDS011;14353;46.070;13.222;2023-01-13T17:29:41;16.55;;;11.38;;
23376;SDS011;14353;46.070;13.222;2023-01-13T17:32:06;17.83;;;10.55;;
23376;SDS011;14353;46.070;13.222;2023-01-13T17:34:33;16.30;;;11.70;;
23376;SDS011;14353;46.070;13.222;2023-01-13T17:36:59;16.77;;;10.90;;
23376;SDS011;14353;46.070;13.222;2023-01-13T17:39:25;17.73;;;10.73;;
23376;SDS011;14353;46.070;13.222;2023-01-13T17:41:51;15.30;;;10.95;;
23376;SDS011;14353;46.070;13.222;2023-01-13T17:44:20;16.85;;;11.15;;
23376;SDS011;14353;46.070;13.222;2023-01-13T17:46:46;17.13;;;11.40;;
23376;SDS011;14353;46.070;13.222;2023-01-13T17:49:13;19.52;;;10.95;;
23376;SDS011;14353;46.070;13.222;2023-01-13T17:51:43;20.13;;;10.82;;
23376;SDS011;14353;46.070;13.222;2023-01-13T17:54:12;15.60;;;10.82;;
23376;SDS011;14353;46.070;13.222;2023-01-13T17:56:38;21.20;;;11.15;;
23376;SDS011;14353;46.070;13.222;2023-01-13T17:59:05;18.75;;;10.93;;
23376;SDS011;14353;46.070;13.222;2023-01-13T18:01:31;19.58;;;10.88;;
23376;SDS011;14353;46.070;13.222;2023-01-13T18:03:58;17.60;;;10.95;;